createdAt,value
2017-11-18T00:02:26.641Z,46.60
2017-11-18T00:04:54.724Z,46.50
2017-11-18T00:07:22.731Z,46.50
2017-11-18T00:09:51.545Z,46.50
2017-11-18T00:12:19.633Z,46.60
2017-11-18T00:14:47.707Z,46.60
2017-11-18T00:17:15.760Z,46.60
2017-11-18T00:19:43.810Z,46.60
2017-11-18T00:22:11.884Z,46.50
2017-11-18T00:24:39.939Z,46.50
2017-11-18T00:27:08.766Z,46.50
2017-11-18T00:29:36.815Z,46.50
2017-11-18T00:32:04.931Z,46.50
2017-11-18T00:34:33.011Z,46.50
2017-11-18T00:37:01.059Z,46.50
2017-11-18T00:39:29.095Z,46.50
2017-11-18T00:41:57.970Z,46.60
2017-11-18T00:44:26.799Z,46.60
2017-11-18T00:46:54.883Z,46.50
2017-11-18T00:49:22.976Z,46.60
2017-11-18T00:51:51.039Z,46.60
2017-11-18T00:54:19.096Z,46.60
2017-11-18T00:56:47.170Z,46.60
2017-11-18T00:59:15.242Z,46.60
2017-11-18T01:01:43.310Z,46.60
2017-11-18T01:04:11.487Z,46.70
2017-11-18T01:06:40.524Z,46.60
2017-11-18T01:09:09.386Z,46.60
2017-11-18T01:11:37.508Z,46.60
2017-11-18T01:14:05.619Z,46.60
2017-11-18T01:16:33.746Z,46.60
2017-11-18T01:19:02.607Z,46.50
2017-11-18T01:21:30.686Z,46.60
2017-11-18T01:23:58.781Z,46.60
2017-11-18T01:26:26.884Z,46.60
2017-11-18T01:28:54.971Z,46.60
2017-11-18T01:31:23.053Z,46.60
2017-11-18T01:33:51.206Z,46.60
2017-11-18T01:36:19.305Z,46.50
2017-11-18T01:38:47.328Z,47.20
2017-11-18T01:41:16.177Z,46.60
2017-11-18T01:43:44.271Z,46.60
2017-11-18T01:46:13.151Z,46.70
2017-11-18T01:48:41.272Z,46.70
2017-11-18T01:51:09.404Z,46.60
2017-11-18T01:53:38.280Z,46.60
2017-11-18T01:56:06.374Z,46.60
2017-11-18T01:58:35.250Z,46.70
2017-11-18T02:01:03.351Z,46.70
2017-11-18T02:03:31.459Z,46.70
2017-11-18T02:05:59.564Z,46.70
2017-11-18T02:08:27.736Z,46.80
2017-11-18T02:10:55.879Z,46.80
2017-11-18T02:13:23.975Z,46.80
2017-11-18T02:15:52.081Z,46.90
2017-11-18T02:18:20.165Z,46.90
2017-11-18T02:20:48.333Z,46.90
2017-11-18T02:23:16.498Z,46.90
2017-11-18T02:25:45.419Z,47.10
2017-11-18T02:28:13.602Z,47.10
2017-11-18T02:30:41.782Z,47.10
2017-11-18T02:33:09.960Z,47.10
2017-11-18T02:35:38.107Z,47.20
2017-11-18T02:38:06.262Z,47.20
2017-11-18T02:40:35.239Z,47.30
2017-11-18T02:43:04.174Z,47.40
2017-11-18T02:45:32.347Z,47.40
2017-11-18T02:48:00.526Z,47.40
2017-11-18T02:50:28.738Z,47.50
2017-11-18T02:52:56.911Z,47.50
2017-11-18T02:55:25.059Z,47.50
2017-11-18T02:57:53.221Z,47.60
2017-11-18T03:00:21.357Z,47.60
2017-11-18T03:02:50.226Z,47.60
2017-11-18T03:05:18.291Z,47.60
2017-11-18T03:07:46.419Z,47.60
2017-11-18T03:10:14.442Z,47.60
2017-11-18T03:12:42.560Z,47.60
2017-11-18T03:15:10.669Z,47.60
2017-11-18T03:17:38.783Z,47.60
2017-11-18T03:20:07.670Z,47.60
2017-11-18T03:22:36.508Z,47.60
2017-11-18T03:25:04.652Z,47.70
2017-11-18T03:27:32.759Z,47.80
2017-11-18T03:30:00.834Z,47.70
2017-11-18T03:32:28.928Z,47.60
2017-11-18T03:34:56.982Z,47.60
2017-11-18T03:37:25.077Z,47.60
2017-11-18T03:39:53.190Z,47.60
2017-11-18T03:42:21.259Z,47.60
2017-11-18T03:44:49.379Z,47.60
2017-11-18T03:47:17.465Z,47.60
2017-11-18T03:49:45.594Z,47.60
2017-11-18T03:52:13.677Z,47.60
2017-11-18T03:54:41.854Z,47.60
2017-11-18T03:57:09.947Z,47.50
2017-11-18T03:59:38.115Z,47.50
2017-11-18T04:02:06.222Z,47.50
2017-11-18T04:04:35.064Z,47.40
2017-11-18T04:07:03.129Z,47.40
2017-11-18T04:09:31.190Z,47.40
2017-11-18T04:11:59.235Z,47.40
2017-11-18T04:14:28.084Z,47.40
2017-11-18T04:16:56.174Z,47.40
2017-11-18T04:19:24.251Z,47.50
2017-11-18T04:21:53.110Z,47.40
2017-11-18T04:24:21.216Z,47.40
2017-11-18T04:26:50.055Z,47.40
2017-11-18T04:29:18.158Z,47.40
2017-11-18T04:31:46.268Z,47.40
2017-11-18T04:34:14.353Z,47.40
2017-11-18T04:36:42.434Z,47.40
2017-11-18T04:39:10.518Z,47.40
2017-11-18T04:41:38.587Z,47.40
2017-11-18T04:44:06.696Z,47.40
2017-11-18T04:46:34.767Z,47.40
2017-11-18T04:49:02.860Z,47.40
2017-11-18T04:51:31.711Z,47.40
2017-11-18T04:53:59.805Z,48.00
2017-11-18T04:56:27.905Z,47.40
2017-11-18T04:58:56.746Z,47.50
2017-11-18T05:01:24.834Z,47.50
2017-11-18T05:03:52.906Z,47.50
2017-11-18T05:06:20.999Z,47.50
2017-11-18T05:08:49.839Z,47.50
2017-11-18T05:11:17.955Z,48.00
2017-11-18T05:13:46.041Z,47.40
2017-11-18T05:16:14.881Z,47.40
2017-11-18T05:18:42.959Z,47.40
2017-11-18T05:21:11.023Z,47.40
2017-11-18T05:23:39.099Z,47.40
2017-11-18T05:26:07.266Z,47.50
2017-11-18T05:28:35.339Z,47.40
2017-11-18T05:31:03.455Z,47.40
2017-11-18T05:33:32.288Z,47.40
2017-11-18T05:36:00.443Z,47.40
2017-11-18T05:38:28.546Z,47.40
2017-11-18T05:40:56.649Z,47.40
2017-11-18T05:43:24.728Z,47.40
2017-11-18T05:45:52.801Z,47.40
2017-11-18T05:48:21.622Z,47.40
2017-11-18T05:50:49.698Z,47.30
2017-11-18T05:53:17.777Z,47.30
2017-11-18T05:55:45.850Z,47.30
2017-11-18T05:58:13.933Z,47.30
2017-11-18T06:00:42.119Z,47.30
2017-11-18T06:03:10.299Z,47.30
2017-11-18T06:05:38.362Z,47.30
2017-11-18T06:08:06.462Z,47.30
2017-11-18T06:10:34.582Z,47.30
2017-11-18T06:13:02.671Z,47.30
2017-11-18T06:15:30.751Z,47.30
2017-11-18T06:17:58.821Z,47.20
2017-11-18T06:20:26.901Z,47.20
2017-11-18T06:22:54.931Z,47.10
2017-11-18T06:25:22.995Z,47.20
2017-11-18T06:27:51.055Z,47.20
2017-11-18T06:30:19.895Z,47.20
2017-11-18T06:32:47.913Z,47.20
2017-11-18T06:35:16.750Z,47.10
2017-11-18T06:37:44.798Z,47.10
2017-11-18T06:40:12.879Z,47.10
2017-11-18T06:42:40.958Z,47.10
2017-11-18T06:45:09.010Z,47.70
2017-11-18T06:47:37.051Z,47.10
2017-11-18T06:50:05.124Z,47.10
2017-11-18T06:52:33.974Z,47.10
2017-11-18T06:55:02.052Z,47.10
2017-11-18T06:57:30.157Z,47.10
2017-11-18T06:59:58.226Z,47.10
2017-11-18T07:02:26.284Z,47.20
2017-11-18T07:04:54.319Z,47.20
2017-11-18T07:07:22.638Z,47.30
2017-11-18T07:09:50.713Z,47.30
2017-11-18T07:12:18.789Z,47.40
2017-11-18T07:14:46.813Z,47.40
2017-11-18T07:17:14.902Z,47.40
2017-11-18T07:19:42.972Z,47.50
2017-11-18T07:22:11.063Z,47.50
2017-11-18T07:24:39.109Z,47.50
2017-11-18T07:27:08.168Z,47.40
2017-11-18T07:29:36.251Z,47.40
2017-11-18T07:32:04.316Z,47.50
2017-11-18T07:34:32.395Z,47.70
2017-11-18T07:37:00.457Z,47.90
2017-11-18T07:39:28.537Z,48.00
2017-11-18T07:41:56.609Z,48.30
2017-11-18T07:44:24.649Z,48.50
2017-11-18T07:46:53.473Z,48.80
2017-11-18T07:49:21.701Z,48.80
2017-11-18T07:51:50.163Z,49.10
2017-11-18T07:54:19.023Z,49.60
2017-11-18T07:56:47.123Z,49.40
2017-11-18T07:59:15.194Z,49.80
2017-11-18T08:01:43.265Z,49.90
2017-11-18T08:04:11.321Z,50.00
2017-11-18T08:06:39.382Z,50.00
2017-11-18T08:09:07.423Z,50.10
2017-11-18T08:11:36.204Z,49.90
2017-11-18T08:14:05.043Z,50.00
2017-11-18T08:16:33.107Z,49.90
2017-11-18T08:19:01.202Z,49.90
2017-11-18T08:21:29.397Z,49.90
2017-11-18T08:23:57.474Z,50.00
2017-11-18T08:26:26.131Z,50.00
2017-11-18T08:28:54.163Z,50.10
2017-11-18T08:31:22.237Z,50.10
2017-11-18T08:33:50.296Z,50.00
2017-11-18T08:36:41.730Z,50.00
2017-11-18T08:39:09.815Z,50.00
2017-11-18T08:41:38.094Z,49.90
2017-11-18T08:44:06.593Z,49.90
2017-11-18T08:46:34.686Z,49.80
2017-11-18T08:49:03.181Z,49.80
2017-11-18T08:51:31.481Z,49.80
2017-11-18T08:54:00.302Z,49.60
2017-11-18T08:56:28.403Z,49.60
2017-11-18T08:58:56.480Z,49.60
2017-11-18T09:01:24.592Z,49.50
2017-11-18T09:03:52.640Z,49.50
2017-11-18T09:06:21.481Z,49.20
2017-11-18T09:08:49.529Z,49.20
2017-11-18T09:11:17.549Z,49.10
2017-11-18T09:13:45.675Z,49.10
2017-11-18T09:16:13.699Z,49.00
2017-11-18T09:18:41.791Z,49.10
2017-11-18T09:21:10.667Z,49.00
2017-11-18T09:23:38.720Z,49.10
2017-11-18T09:26:06.802Z,48.90
2017-11-18T09:28:35.549Z,48.90
2017-11-18T09:31:03.615Z,48.90
2017-11-18T09:33:31.684Z,48.70
2017-11-18T09:35:59.744Z,48.50
2017-11-18T09:38:28.558Z,48.30
2017-11-18T09:40:56.632Z,48.30
2017-11-18T09:43:24.696Z,48.10
2017-11-18T09:45:52.738Z,48.10
2017-11-18T09:48:21.564Z,47.90
2017-11-18T09:50:49.621Z,47.80
2017-11-18T09:53:17.666Z,47.70
2017-11-18T09:55:46.482Z,47.60
2017-11-18T09:58:14.523Z,47.60
2017-11-18T10:00:43.346Z,47.40
2017-11-18T10:03:11.486Z,47.30
2017-11-18T10:05:40.367Z,47.00
2017-11-18T10:08:08.479Z,46.90
2017-11-18T10:10:36.558Z,46.90
2017-11-18T10:13:05.612Z,46.90
2017-11-18T10:15:33.695Z,46.70
2017-11-18T10:18:02.627Z,46.50
2017-11-18T10:20:30.702Z,46.50
2017-11-18T10:22:58.781Z,46.40
2017-11-18T10:25:26.817Z,46.30
2017-11-18T10:27:54.889Z,46.30
2017-11-18T10:30:22.948Z,46.20
2017-11-18T10:32:51.783Z,45.90
2017-11-18T10:35:19.871Z,45.90
2017-11-18T10:37:47.938Z,45.90
2017-11-18T10:40:16.027Z,45.70
2017-11-18T10:42:44.143Z,45.60
2017-11-18T10:45:13.792Z,45.30
2017-11-18T10:47:43.801Z,44.90
2017-11-18T10:50:12.050Z,45.00
2017-11-18T10:52:40.310Z,44.80
2017-11-18T10:55:09.910Z,44.40
2017-11-18T10:57:38.009Z,44.40
2017-11-18T11:00:07.012Z,44.30
2017-11-18T11:02:35.284Z,44.20
2017-11-18T11:05:03.525Z,44.10
2017-11-18T11:07:32.415Z,43.60
2017-11-18T11:10:01.602Z,43.50
2017-11-18T11:12:30.787Z,43.50
2017-11-18T11:14:59.155Z,43.60
2017-11-18T11:17:27.721Z,43.50
2017-11-18T11:19:56.263Z,43.30
2017-11-18T11:22:25.753Z,42.90
2017-11-18T11:24:54.219Z,42.90
2017-11-18T11:27:22.670Z,42.60
2017-11-18T11:29:51.101Z,42.90
2017-11-18T11:32:20.290Z,42.00
2017-11-18T11:34:48.725Z,42.00
2017-11-18T11:37:17.115Z,41.90
2017-11-18T11:39:45.527Z,41.90
2017-11-18T11:42:13.928Z,41.80
2017-11-18T11:44:43.165Z,41.60
2017-11-18T11:47:11.468Z,41.60
2017-11-18T11:49:39.582Z,41.50
2017-11-18T11:52:08.392Z,41.50
2017-11-18T11:54:36.570Z,41.50
2017-11-18T11:57:04.727Z,41.60
2017-11-18T11:59:32.819Z,41.50
2017-11-18T12:02:00.892Z,41.60
2017-11-18T12:04:29.303Z,41.70
2017-11-18T12:06:57.665Z,41.80
2017-11-18T12:09:25.726Z,41.70
2017-11-18T12:11:53.807Z,41.50
2017-11-18T12:14:21.876Z,41.50
2017-11-18T12:16:50.626Z,41.40
2017-11-18T12:19:19.442Z,41.60
2017-11-18T12:21:47.537Z,41.50
2017-11-18T12:24:15.592Z,41.60
2017-11-18T12:26:43.730Z,41.60
2017-11-18T12:29:12.609Z,41.50
2017-11-18T12:31:41.398Z,41.60
2017-11-18T12:34:10.228Z,41.60
2017-11-18T12:36:38.306Z,41.60
2017-11-18T12:39:06.380Z,41.70
2017-11-18T12:41:34.471Z,41.90
2017-11-18T12:44:02.514Z,41.90
2017-11-18T12:46:30.642Z,41.90
2017-11-18T12:48:58.716Z,42.00
2017-11-18T12:51:27.551Z,42.10
2017-11-18T12:53:55.623Z,42.10
2017-11-18T12:56:23.727Z,42.10
2017-11-18T12:58:51.775Z,42.10
2017-11-18T13:01:19.841Z,42.20
2017-11-18T13:03:47.888Z,42.30
2017-11-18T13:06:15.977Z,42.40
2017-11-18T13:08:44.006Z,42.50
2017-11-18T13:11:12.040Z,42.60
2017-11-18T13:13:40.086Z,42.80
2017-11-18T13:16:08.099Z,42.80
2017-11-18T13:18:36.463Z,43.00
2017-11-18T13:21:04.812Z,43.10
2017-11-18T13:23:32.909Z,43.10
2017-11-18T13:26:00.922Z,43.00
2017-11-18T13:28:29.733Z,43.00
2017-11-18T13:30:57.819Z,42.90
2017-11-18T13:33:25.879Z,43.00
2017-11-18T13:35:54.250Z,43.00
2017-11-18T13:38:22.577Z,43.10
2017-11-18T13:40:50.717Z,43.20
2017-11-18T13:43:18.845Z,43.20
2017-11-18T13:45:46.985Z,43.30
2017-11-18T13:48:15.049Z,43.30
2017-11-18T13:50:43.059Z,43.40
2017-11-18T13:53:11.121Z,43.50
2017-11-18T13:55:39.176Z,43.50
2017-11-18T13:58:07.227Z,43.50
2017-11-18T14:00:35.323Z,43.50
2017-11-18T14:03:03.382Z,43.60
2017-11-18T14:05:31.837Z,43.70
2017-11-18T14:07:59.971Z,43.70
2017-11-18T14:10:28.045Z,43.70
2017-11-18T14:12:56.093Z,43.80
2017-11-18T14:15:24.160Z,44.00
2017-11-18T14:17:52.440Z,43.90
2017-11-18T14:20:20.487Z,43.90
2017-11-18T14:22:48.540Z,43.90
2017-11-18T14:25:16.647Z,43.90
2017-11-18T14:27:44.727Z,44.00
2017-11-18T14:30:12.873Z,44.00
2017-11-18T14:32:40.975Z,44.00
2017-11-18T14:35:09.045Z,44.60
2017-11-18T14:37:37.165Z,44.10
2017-11-18T14:40:06.019Z,44.20
2017-11-18T14:42:34.182Z,44.20
2017-11-18T14:45:02.248Z,44.20
2017-11-18T14:47:30.344Z,44.30
2017-11-18T14:49:58.385Z,44.20
2017-11-18T14:52:26.440Z,44.30
2017-11-18T14:54:54.598Z,44.40
2017-11-18T14:57:22.778Z,44.40
2017-11-18T14:59:50.903Z,44.50
2017-11-18T15:02:19.163Z,44.50
2017-11-18T15:04:47.321Z,44.70
2017-11-18T15:07:15.520Z,44.80
2017-11-18T15:09:43.746Z,44.80
2017-11-18T15:12:11.948Z,44.90
2017-11-18T15:14:42.069Z,45.00
2017-11-18T15:17:15.657Z,45.00
2017-11-18T15:19:49.274Z,45.00
2017-11-18T15:25:24.054Z,45.20
2017-11-18T15:27:57.754Z,45.20
2017-11-18T15:30:44.610Z,45.40
2017-11-18T15:33:12.843Z,45.30
2017-11-18T15:35:41.061Z,45.50
2017-11-18T15:38:14.867Z,45.60
2017-11-18T15:40:43.041Z,45.60
2017-11-18T15:43:12.771Z,45.70
2017-11-18T15:45:55.740Z,45.80
2017-11-18T15:48:29.494Z,45.90
2017-11-18T15:51:14.458Z,45.90
2017-11-18T15:53:48.147Z,46.00
2017-11-18T15:56:21.844Z,46.00
2017-11-18T15:58:51.463Z,46.10
2017-11-18T16:01:25.148Z,46.10
2017-11-18T16:03:59.023Z,46.30
2017-11-18T16:06:39.943Z,46.20
2017-11-18T16:09:08.139Z,46.30
2017-11-18T16:11:36.258Z,46.40
2017-11-18T16:14:04.411Z,46.50
2017-11-18T16:16:32.776Z,46.50
2017-11-18T16:19:00.900Z,46.50
2017-11-18T16:21:29.800Z,46.50
2017-11-18T16:23:58.719Z,46.60
2017-11-18T16:26:26.881Z,46.60
2017-11-18T16:28:55.025Z,46.70
2017-11-18T16:31:23.982Z,46.70
2017-11-18T16:33:52.131Z,46.80
2017-11-18T16:36:20.264Z,46.80
2017-11-18T16:38:49.187Z,46.80
2017-11-18T16:41:17.317Z,46.80
2017-11-18T16:43:45.464Z,46.90
2017-11-18T16:46:14.427Z,47.10
2017-11-18T16:48:42.592Z,47.30
2017-11-18T16:51:10.760Z,47.40
2017-11-18T16:53:38.886Z,47.50
2017-11-18T16:56:07.072Z,47.50
2017-11-18T16:58:35.184Z,47.50
2017-11-18T17:01:03.399Z,47.50
2017-11-18T17:03:31.597Z,47.40
2017-11-18T17:05:59.720Z,47.50
2017-11-18T17:08:27.850Z,47.40
2017-11-18T17:10:56.011Z,47.30
2017-11-18T17:13:24.135Z,47.30
2017-11-18T17:15:52.259Z,47.30
2017-11-18T17:18:20.397Z,47.30
2017-11-18T17:20:48.544Z,47.20
2017-11-18T17:23:16.684Z,47.20
2017-11-18T17:25:44.829Z,47.20
2017-11-18T17:28:12.964Z,47.10
2017-11-18T17:30:41.075Z,47.10
2017-11-18T17:33:24.045Z,47.10
2017-11-18T17:35:53.978Z,47.00
2017-11-18T17:38:22.237Z,47.00
2017-11-18T17:40:51.185Z,47.00
2017-11-18T17:43:19.319Z,47.00
2017-11-18T17:45:47.452Z,47.00
2017-11-18T17:48:15.624Z,46.90
2017-11-18T17:50:43.774Z,47.00
2017-11-18T17:53:11.919Z,46.90
2017-11-18T17:55:40.055Z,46.80
2017-11-18T17:58:08.194Z,46.80
2017-11-18T18:00:36.372Z,46.80
2017-11-18T18:03:06.263Z,46.80
2017-11-18T18:05:34.424Z,46.70
2017-11-18T18:08:02.556Z,46.70
2017-11-18T18:10:30.703Z,46.70
2017-11-18T18:12:58.921Z,46.70
2017-11-18T18:15:27.816Z,47.20
2017-11-18T18:17:56.610Z,46.60
2017-11-18T18:20:25.553Z,46.60
2017-11-18T18:22:53.614Z,46.60
2017-11-18T18:25:21.576Z,46.60
2017-11-18T18:27:49.655Z,46.60
2017-11-18T18:30:17.804Z,46.50
2017-11-18T18:32:45.905Z,46.40
2017-11-18T18:35:13.946Z,46.40
2017-11-18T18:37:42.017Z,46.40
2017-11-18T18:40:10.127Z,46.40
2017-11-18T18:42:38.195Z,46.40
2017-11-18T18:45:06.280Z,46.40
2017-11-18T18:47:34.395Z,46.40
2017-11-18T18:50:02.517Z,46.30
2017-11-18T18:52:30.599Z,46.30
2017-11-18T18:54:58.723Z,46.90
2017-11-18T18:57:26.785Z,46.30
2017-11-18T18:59:55.609Z,46.30
2017-11-18T19:02:23.724Z,46.20
2017-11-18T19:04:51.780Z,46.20
2017-11-18T19:07:19.836Z,46.20
2017-11-18T19:09:47.908Z,46.10
2017-11-18T19:12:15.974Z,46.10
2017-11-18T19:14:44.119Z,46.10
2017-11-18T19:17:12.165Z,46.10
2017-11-18T19:19:40.244Z,46.10
2017-11-18T19:22:09.049Z,46.00
2017-11-18T19:24:37.136Z,46.00
2017-11-18T19:27:05.188Z,46.00
2017-11-18T19:29:33.262Z,45.90
2017-11-18T19:32:01.324Z,46.00
2017-11-18T19:34:30.188Z,45.90
2017-11-18T19:36:58.250Z,45.90
2017-11-18T19:39:26.335Z,46.00
2017-11-18T19:41:54.405Z,45.90
2017-11-18T19:44:22.498Z,45.80
2017-11-18T19:46:51.291Z,45.80
2017-11-18T19:49:20.102Z,45.70
2017-11-18T19:51:48.208Z,45.70
2017-11-18T19:54:16.388Z,45.70
2017-11-18T19:56:44.481Z,45.70
2017-11-18T19:59:12.528Z,45.70
2017-11-18T20:01:40.603Z,45.70
2017-11-18T20:04:08.684Z,45.70
2017-11-18T20:06:36.853Z,45.70
2017-11-18T20:09:04.952Z,45.60
2017-11-18T20:11:33.828Z,45.60
2017-11-18T20:14:01.872Z,45.60
2017-11-18T20:16:29.984Z,45.60
2017-11-18T20:18:58.799Z,45.50
2017-11-18T20:21:26.889Z,45.50
2017-11-18T20:23:54.954Z,45.50
2017-11-18T20:26:23.095Z,45.50
2017-11-18T20:28:51.955Z,45.40
2017-11-18T20:31:20.072Z,45.30
2017-11-18T20:33:48.193Z,45.40
2017-11-18T20:36:16.257Z,45.30
2017-11-18T20:38:44.312Z,45.30
2017-11-18T20:41:12.352Z,45.30
2017-11-18T20:43:41.160Z,45.30
2017-11-18T20:46:09.201Z,45.30
2017-11-18T20:48:38.025Z,45.30
2017-11-18T20:51:06.093Z,45.30
2017-11-18T20:53:34.135Z,45.20
2017-11-18T20:56:02.970Z,45.10
2017-11-18T20:58:30.995Z,45.20
2017-11-18T21:00:59.815Z,45.10
2017-11-18T21:03:27.883Z,45.10
2017-11-18T21:05:55.935Z,45.10
2017-11-18T21:08:24.825Z,45.20
2017-11-18T21:10:53.639Z,45.10
2017-11-18T21:13:21.651Z,45.00
2017-11-18T21:15:49.778Z,45.10
2017-11-18T21:18:17.823Z,45.10
2017-11-18T21:20:46.648Z,45.10
2017-11-18T21:23:14.780Z,45.10
2017-11-18T21:25:43.620Z,45.10
2017-11-18T21:28:11.665Z,45.10
2017-11-18T21:30:52.998Z,45.10
2017-11-18T21:33:34.622Z,45.10
2017-11-18T21:36:16.110Z,45.00
2017-11-18T21:38:58.200Z,45.00
2017-11-18T21:41:32.118Z,45.00
2017-11-18T21:44:13.111Z,45.10
2017-11-18T21:46:47.209Z,45.10
2017-11-18T21:49:28.513Z,44.60
2017-11-18T21:52:09.321Z,44.60
2017-11-18T21:54:49.228Z,44.60
2017-11-18T21:57:26.400Z,44.70
2017-11-18T22:00:03.491Z,44.80
2017-11-18T22:02:31.570Z,44.70
2017-11-18T22:04:59.626Z,44.70
2017-11-18T22:07:28.454Z,44.70
2017-11-18T22:09:56.559Z,44.70
2017-11-18T22:12:24.651Z,44.70
2017-11-18T22:14:53.499Z,44.70
2017-11-18T22:17:21.571Z,44.80
2017-11-18T22:19:49.661Z,44.70
2017-11-18T22:22:17.761Z,44.80
2017-11-18T22:24:46.651Z,44.70
2017-11-18T22:27:15.563Z,44.60
2017-11-18T22:29:43.507Z,44.60
2017-11-18T22:32:11.555Z,44.60
2017-11-18T22:34:39.631Z,44.60
2017-11-18T22:37:07.721Z,44.60
2017-11-18T22:39:36.600Z,44.60
2017-11-18T22:42:04.691Z,44.60
2017-11-18T22:44:33.547Z,44.50
2017-11-18T22:47:01.870Z,44.50
2017-11-18T22:49:29.932Z,44.50
2017-11-18T22:51:58.766Z,44.50
2017-11-18T22:54:26.839Z,44.40
2017-11-18T22:56:54.900Z,44.40
2017-11-18T22:59:22.995Z,44.40
2017-11-18T23:01:51.091Z,44.40
2017-11-18T23:04:19.175Z,44.40
2017-11-18T23:06:47.995Z,44.40
2017-11-18T23:09:16.066Z,44.40
2017-11-18T23:11:44.120Z,44.40
2017-11-18T23:14:12.207Z,44.40
2017-11-18T23:16:40.287Z,44.30
2017-11-18T23:19:08.353Z,44.40
2017-11-18T23:21:36.399Z,44.40
2017-11-18T23:24:05.289Z,44.40
2017-11-18T23:26:34.134Z,44.40
2017-11-18T23:29:02.219Z,44.30
2017-11-18T23:31:30.297Z,44.30
2017-11-18T23:33:58.379Z,44.30
2017-11-18T23:36:26.511Z,44.30
2017-11-18T23:38:54.572Z,44.30
2017-11-18T23:41:22.688Z,44.40
2017-11-18T23:43:50.827Z,44.30
2017-11-18T23:46:18.938Z,44.30
2017-11-18T23:48:47.014Z,44.40
2017-11-18T23:51:15.101Z,44.40
2017-11-18T23:53:44.014Z,44.40
2017-11-18T23:56:12.097Z,44.40
2017-11-18T23:58:40.189Z,44.40
